Aérodrome :
LOGIN :

S'inscrire | Disclaimer

   EN    FR    IT 

 










Légende :    VFR   VFR Marginal   IFR   IFR Intensif   IFR Très Intensif
Visi : 
Plafond : 
>= 8 km
>= 3000ft
5 à 8 km
1000 à 3000 ft
1500m à 5 km
500 à 1000 ft
800 à 1500m
200 à 500 ft
< 800m
< 200 ft
Symboles :   Orages  Brouillard  Fortes neiges  Fortes précipitations  Vent > 20 kt
SIGMETs :   Divers  Orages  Givrage  Turbulence  Onde Orograph.  Cendres Volcan.






- Altitude de l'aérodrome : 670 ft
- Code IATA : MSQ


UMMS - Minsk - 2

DERNIER METAR :
  • 171200Z 16004MPS 6000 OVC009 10/08 Q1024 R88/D NOSIG

METARs EXPIRÉS :
  • 171130Z 16003G06MPS 130V200 6000 OVC009 10/08 Q1024 R88/290050 NOSIG
  • 171100Z 16003G06MPS 6000 OVC008 10/09 Q1025 R88/290050 NOSIG
  • 171030Z 18005MPS 5000 BR OVC008 10/09 Q1025 R88/290050 NOSIG
  • 171000Z 18005MPS 5000 BR OVC008 10/09 Q1025 R88/290050 NOSIG
  • 170930Z 19004MPS 6000 OVC008 10/09 Q1025 R88/290050 NOSIG

TAF TAF UMMS
Valide du 17 à 12h jusqu'au 18 à 12h UTC


171104Z 1712/1812 15005G10MPS 3000 BR OVC003
TEMPO 1713/1808 0300 -DZ FG VV002



MET'MAP, la Météo Aéronautique d'un coup d'oeil ! - Copyright ORBIFLY Décembre 2007 - Disclaimer

ORBIFLY MET'MAP TEAM :

Programmation & Développement : Alexandra Zaïnal
Conception & Développement : Baudouin d'Aumeries
Co-Programmation & Développement : Marc-Olivier Méhu
Soutien technique & logistique : Manuel Goepfert

Contact : metmap@orbifly.com




SOURCES & CREDITS :

   NOAA